sensor_id;sensor_type;location;lat;lon;timestamp;temperature;humidity
20803;DHT22;10562;-33.856;151.182;2023-01-15T00:00:17;28.90;99.90
20803;DHT22;10562;-33.856;151.182;2023-01-15T00:02:48;28.80;99.90
20803;DHT22;10562;-33.856;151.182;2023-01-15T00:05:24;28.90;99.90
20803;DHT22;10562;-33.856;151.182;2023-01-15T00:07:58;28.90;99.90
20803;DHT22;10562;-33.856;151.182;2023-01-15T00:10:29;28.90;99.90
20803;DHT22;10562;-33.856;151.182;2023-01-15T00:12:59;29.20;99.90
20803;DHT22;10562;-33.856;151.182;2023-01-15T00:15:31;29.50;99.90
20803;DHT22;10562;-33.856;151.182;2023-01-15T00:18:02;29.50;99.90
20803;DHT22;10562;-33.856;151.182;2023-01-15T00:20:35;29.60;99.90
20803;DHT22;10562;-33.856;151.182;2023-01-15T00:23:06;29.90;99.90
20803;DHT22;10562;-33.856;151.182;2023-01-15T00:25:57;29.80;99.90
20803;DHT22;10562;-33.856;151.182;2023-01-15T00:28:46;29.70;99.90
20803;DHT22;10562;-33.856;151.182;2023-01-15T00:31:17;29.70;99.90
20803;DHT22;10562;-33.856;151.182;2023-01-15T00:33:48;29.80;99.90
20803;DHT22;10562;-33.856;151.182;2023-01-15T00:36:20;29.70;99.90
20803;DHT22;10562;-33.856;151.182;2023-01-15T00:38:52;29.50;99.90
20803;DHT22;10562;-33.856;151.182;2023-01-15T00:41:23;29.40;99.90
20803;DHT22;10562;-33.856;151.182;2023-01-15T00:43:54;29.50;99.90
20803;DHT22;10562;-33.856;151.182;2023-01-15T00:46:25;29.70;99.90
20803;DHT22;10562;-33.856;151.182;2023-01-15T00:48:56;29.40;99.90
20803;DHT22;10562;-33.856;151.182;2023-01-15T00:51:28;29.50;99.90
20803;DHT22;10562;-33.856;151.182;2023-01-15T00:53:59;29.60;99.90
20803;DHT22;10562;-33.856;151.182;2023-01-15T00:56:31;29.80;99.90
20803;DHT22;10562;-33.856;151.182;2023-01-15T00:59:03;29.80;99.90
20803;DHT22;10562;-33.856;151.182;2023-01-15T01:01:34;29.60;99.90
20803;DHT22;10562;-33.856;151.182;2023-01-15T01:04:04;29.50;99.90
20803;DHT22;10562;-33.856;151.182;2023-01-15T01:06:37;29.30;99.90
20803;DHT22;10562;-33.856;151.182;2023-01-15T01:09:09;29.40;99.90
20803;DHT22;10562;-33.856;151.182;2023-01-15T01:11:42;29.40;99.90
20803;DHT22;10562;-33.856;151.182;2023-01-15T01:14:13;29.60;99.90
20803;DHT22;10562;-33.856;151.182;2023-01-15T01:16:44;29.70;99.90
20803;DHT22;10562;-33.856;151.182;2023-01-15T01:19:16;29.60;99.90
20803;DHT22;10562;-33.856;151.182;2023-01-15T01:21:50;29.40;99.90
20803;DHT22;10562;-33.856;151.182;2023-01-15T01:24:21;29.50;99.90
20803;DHT22;10562;-33.856;151.182;2023-01-15T01:26:52;29.60;99.90
20803;DHT22;10562;-33.856;151.182;2023-01-15T01:29:23;29.90;99.90
20803;DHT22;10562;-33.856;151.182;2023-01-15T01:31:54;29.60;99.90
20803;DHT22;10562;-33.856;151.182;2023-01-15T01:34:25;29.90;99.90
20803;DHT22;10562;-33.856;151.182;2023-01-15T01:36:58;30.10;99.90
20803;DHT22;10562;-33.856;151.182;2023-01-15T01:39:29;29.80;99.90
20803;DHT22;10562;-33.856;151.182;2023-01-15T01:42:00;29.80;99.90
20803;DHT22;10562;-33.856;151.182;2023-01-15T01:44:58;29.90;99.90
20803;DHT22;10562;-33.856;151.182;2023-01-15T01:47:29;29.80;99.90
20803;DHT22;10562;-33.856;151.182;2023-01-15T01:50:03;29.90;99.90
20803;DHT22;10562;-33.856;151.182;2023-01-15T01:52:41;29.60;99.90
20803;DHT22;10562;-33.856;151.182;2023-01-15T01:55:14;29.60;99.90
20803;DHT22;10562;-33.856;151.182;2023-01-15T01:57:47;29.70;99.90
20803;DHT22;10562;-33.856;151.182;2023-01-15T02:00:19;29.70;99.90
20803;DHT22;10562;-33.856;151.182;2023-01-15T02:02:51;29.80;99.90
20803;DHT22;10562;-33.856;151.182;2023-01-15T02:05:28;29.90;99.90
20803;DHT22;10562;-33.856;151.182;2023-01-15T02:08:02;29.90;99.90
20803;DHT22;10562;-33.856;151.182;2023-01-15T02:10:33;30.10;99.90
20803;DHT22;10562;-33.856;151.182;2023-01-15T02:13:09;30.00;99.90
20803;DHT22;10562;-33.856;151.182;2023-01-15T02:15:42;30.10;99.90
20803;DHT22;10562;-33.856;151.182;2023-01-15T02:18:21;30.10;99.90
20803;DHT22;10562;-33.856;151.182;2023-01-15T02:20:56;30.00;99.90
20803;DHT22;10562;-33.856;151.182;2023-01-15T02:27:01;30.40;99.90
20803;DHT22;10562;-33.856;151.182;2023-01-15T02:29:41;30.20;99.90
20803;DHT22;10562;-33.856;151.182;2023-01-15T02:32:18;29.80;99.90
20803;DHT22;10562;-33.856;151.182;2023-01-15T02:34:53;29.90;99.90
20803;DHT22;10562;-33.856;151.182;2023-01-15T02:37:27;29.80;99.90
20803;DHT22;10562;-33.856;151.182;2023-01-15T02:40:00;30.10;99.90
20803;DHT22;10562;-33.856;151.182;2023-01-15T02:42:35;30.00;99.90
20803;DHT22;10562;-33.856;151.182;2023-01-15T02:45:07;30.10;99.90
20803;DHT22;10562;-33.856;151.182;2023-01-15T02:47:40;30.20;99.90
20803;DHT22;10562;-33.856;151.182;2023-01-15T02:50:17;30.10;99.90
20803;DHT22;10562;-33.856;151.182;2023-01-15T02:52:52;29.90;99.90
20803;DHT22;10562;-33.856;151.182;2023-01-15T02:55:26;29.90;99.90
20803;DHT22;10562;-33.856;151.182;2023-01-15T02:58:03;29.90;99.90
20803;DHT22;10562;-33.856;151.182;2023-01-15T03:00:37;29.90;99.90
20803;DHT22;10562;-33.856;151.182;2023-01-15T03:03:11;30.00;99.90
20803;DHT22;10562;-33.856;151.182;2023-01-15T03:05:44;30.00;99.90
20803;DHT22;10562;-33.856;151.182;2023-01-15T03:08:18;30.20;99.90
20803;DHT22;10562;-33.856;151.182;2023-01-15T03:10:57;30.20;99.90
20803;DHT22;10562;-33.856;151.182;2023-01-15T03:13:38;30.20;99.90
20803;DHT22;10562;-33.856;151.182;2023-01-15T03:16:19;30.40;99.90
20803;DHT22;10562;-33.856;151.182;2023-01-15T03:19:06;30.50;99.90
20803;DHT22;10562;-33.856;151.182;2023-01-15T03:21:46;30.60;99.90
20803;DHT22;10562;-33.856;151.182;2023-01-15T03:24:25;30.60;99.90
20803;DHT22;10562;-33.856;151.182;2023-01-15T03:26:57;30.60;99.90
20803;DHT22;10562;-33.856;151.182;2023-01-15T03:29:32;30.70;99.90
20803;DHT22;10562;-33.856;151.182;2023-01-15T03:32:03;30.50;99.90
20803;DHT22;10562;-33.856;151.182;2023-01-15T03:34:38;30.60;99.90
20803;DHT22;10562;-33.856;151.182;2023-01-15T03:37:10;30.70;99.90
20803;DHT22;10562;-33.856;151.182;2023-01-15T03:39:41;30.80;99.90
20803;DHT22;10562;-33.856;151.182;2023-01-15T03:42:22;31.10;99.90
20803;DHT22;10562;-33.856;151.182;2023-01-15T03:45:01;31.20;99.90
20803;DHT22;10562;-33.856;151.182;2023-01-15T03:47:41;31.20;99.90
20803;DHT22;10562;-33.856;151.182;2023-01-15T03:50:20;31.20;99.90
20803;DHT22;10562;-33.856;151.182;2023-01-15T03:53:00;31.10;99.90
20803;DHT22;10562;-33.856;151.182;2023-01-15T03:55:42;31.00;99.90
20803;DHT22;10562;-33.856;151.182;2023-01-15T03:58:19;31.10;99.90
20803;DHT22;10562;-33.856;151.182;2023-01-15T04:00:56;31.10;99.90
20803;DHT22;10562;-33.856;151.182;2023-01-15T04:03:28;31.40;99.90
20803;DHT22;10562;-33.856;151.182;2023-01-15T04:06:01;31.40;99.90
20803;DHT22;10562;-33.856;151.182;2023-01-15T04:08:34;31.40;99.90
20803;DHT22;10562;-33.856;151.182;2023-01-15T04:11:07;31.70;99.90
20803;DHT22;10562;-33.856;151.182;2023-01-15T04:13:38;31.80;99.90
20803;DHT22;10562;-33.856;151.182;2023-01-15T04:16:14;31.60;99.90
20803;DHT22;10562;-33.856;151.182;2023-01-15T04:18:44;31.60;99.90
20803;DHT22;10562;-33.856;151.182;2023-01-15T04:21:15;31.80;99.90
20803;DHT22;10562;-33.856;151.182;2023-01-15T04:23:46;31.80;99.90
20803;DHT22;10562;-33.856;151.182;2023-01-15T04:26:17;32.00;99.90
20803;DHT22;10562;-33.856;151.182;2023-01-15T04:28:48;31.90;99.90
20803;DHT22;10562;-33.856;151.182;2023-01-15T04:31:20;31.90;99.90
20803;DHT22;10562;-33.856;151.182;2023-01-15T04:33:51;31.90;99.90
20803;DHT22;10562;-33.856;151.182;2023-01-15T04:36:22;32.10;99.90
20803;DHT22;10562;-33.856;151.182;2023-01-15T04:38:53;31.90;99.90
20803;DHT22;10562;-33.856;151.182;2023-01-15T04:41:24;32.00;99.90
20803;DHT22;10562;-33.856;151.182;2023-01-15T04:44:10;31.80;99.90
20803;DHT22;10562;-33.856;151.182;2023-01-15T04:46:44;32.10;99.90
20803;DHT22;10562;-33.856;151.182;2023-01-15T04:49:16;32.30;99.90
20803;DHT22;10562;-33.856;151.182;2023-01-15T04:51:47;32.40;99.90
20803;DHT22;10562;-33.856;151.182;2023-01-15T04:54:19;32.20;99.90
20803;DHT22;10562;-33.856;151.182;2023-01-15T04:56:51;31.90;99.90
20803;DHT22;10562;-33.856;151.182;2023-01-15T04:59:24;31.90;99.90
20803;DHT22;10562;-33.856;151.182;2023-01-15T05:01:58;31.80;99.90
20803;DHT22;10562;-33.856;151.182;2023-01-15T05:04:28;31.90;99.90
20803;DHT22;10562;-33.856;151.182;2023-01-15T05:07:01;32.10;99.90
20803;DHT22;10562;-33.856;151.182;2023-01-15T05:09:32;31.90;99.90
20803;DHT22;10562;-33.856;151.182;2023-01-15T05:12:03;32.20;99.90
20803;DHT22;10562;-33.856;151.182;2023-01-15T05:14:34;32.30;99.90
20803;DHT22;10562;-33.856;151.182;2023-01-15T05:17:07;32.20;99.90
20803;DHT22;10562;-33.856;151.182;2023-01-15T05:19:37;32.30;99.90
20803;DHT22;10562;-33.856;151.182;2023-01-15T05:22:08;32.00;99.90
20803;DHT22;10562;-33.856;151.182;2023-01-15T05:24:39;32.00;99.90
20803;DHT22;10562;-33.856;151.182;2023-01-15T05:27:10;31.90;99.90
20803;DHT22;10562;-33.856;151.182;2023-01-15T05:29:41;31.70;99.90
20803;DHT22;10562;-33.856;151.182;2023-01-15T05:32:13;31.60;99.90
20803;DHT22;10562;-33.856;151.182;2023-01-15T05:34:44;31.60;99.90
20803;DHT22;10562;-33.856;151.182;2023-01-15T05:37:15;31.70;99.90
20803;DHT22;10562;-33.856;151.182;2023-01-15T05:39:46;31.60;99.90
20803;DHT22;10562;-33.856;151.182;2023-01-15T05:42:16;31.90;99.90
20803;DHT22;10562;-33.856;151.182;2023-01-15T05:44:50;32.10;99.90
20803;DHT22;10562;-33.856;151.182;2023-01-15T05:47:23;31.90;99.90
20803;DHT22;10562;-33.856;151.182;2023-01-15T05:49:56;31.70;99.90
20803;DHT22;10562;-33.856;151.182;2023-01-15T05:52:27;32.00;99.90
20803;DHT22;10562;-33.856;151.182;2023-01-15T05:54:57;32.10;99.90
20803;DHT22;10562;-33.856;151.182;2023-01-15T05:57:28;32.40;99.90
20803;DHT22;10562;-33.856;151.182;2023-01-15T05:59:59;32.10;99.90
20803;DHT22;10562;-33.856;151.182;2023-01-15T06:02:32;31.90;99.90
20803;DHT22;10562;-33.856;151.182;2023-01-15T06:05:03;31.60;99.90
20803;DHT22;10562;-33.856;151.182;2023-01-15T06:07:34;31.50;99.90
20803;DHT22;10562;-33.856;151.182;2023-01-15T06:10:05;31.20;99.90
20803;DHT22;10562;-33.856;151.182;2023-01-15T06:12:36;30.60;99.90
20803;DHT22;10562;-33.856;151.182;2023-01-15T06:15:08;30.00;99.90
20803;DHT22;10562;-33.856;151.182;2023-01-15T06:17:40;29.50;99.90
20803;DHT22;10562;-33.856;151.182;2023-01-15T06:20:12;29.20;99.90
20803;DHT22;10562;-33.856;151.182;2023-01-15T06:22:42;28.70;99.90
20803;DHT22;10562;-33.856;151.182;2023-01-15T06:25:13;28.40;99.90
20803;DHT22;10562;-33.856;151.182;2023-01-15T06:27:44;28.10;99.90
20803;DHT22;10562;-33.856;151.182;2023-01-15T06:30:16;27.90;99.90
20803;DHT22;10562;-33.856;151.182;2023-01-15T06:32:49;27.70;99.90
20803;DHT22;10562;-33.856;151.182;2023-01-15T06:35:20;27.60;99.90
20803;DHT22;10562;-33.856;151.182;2023-01-15T06:37:51;27.50;99.90
20803;DHT22;10562;-33.856;151.182;2023-01-15T06:40:21;27.40;99.90
20803;DHT22;10562;-33.856;151.182;2023-01-15T06:42:52;27.30;99.90
20803;DHT22;10562;-33.856;151.182;2023-01-15T06:45:55;27.30;99.90
20803;DHT22;10562;-33.856;151.182;2023-01-15T06:48:49;27.20;99.90
20803;DHT22;10562;-33.856;151.182;2023-01-15T06:51:20;27.10;99.90
20803;DHT22;10562;-33.856;151.182;2023-01-15T06:53:51;27.10;99.90
20803;DHT22;10562;-33.856;151.182;2023-01-15T06:56:22;27.00;99.90
20803;DHT22;10562;-33.856;151.182;2023-01-15T06:58:52;26.90;99.90
20803;DHT22;10562;-33.856;151.182;2023-01-15T07:01:23;26.80;99.90
20803;DHT22;10562;-33.856;151.182;2023-01-15T07:03:59;26.80;99.90
20803;DHT22;10562;-33.856;151.182;2023-01-15T07:06:30;26.80;99.90
20803;DHT22;10562;-33.856;151.182;2023-01-15T07:09:01;26.70;99.90
20803;DHT22;10562;-33.856;151.182;2023-01-15T07:11:32;26.70;99.90
20803;DHT22;10562;-33.856;151.182;2023-01-15T07:14:16;26.60;99.90
20803;DHT22;10562;-33.856;151.182;2023-01-15T07:16:48;26.60;99.90
20803;DHT22;10562;-33.856;151.182;2023-01-15T07:19:21;26.50;99.90
20803;DHT22;10562;-33.856;151.182;2023-01-15T07:21:52;26.40;99.90
20803;DHT22;10562;-33.856;151.182;2023-01-15T07:24:23;26.40;99.90
20803;DHT22;10562;-33.856;151.182;2023-01-15T07:26:53;26.30;99.90
20803;DHT22;10562;-33.856;151.182;2023-01-15T07:29:24;26.30;99.90
20803;DHT22;10562;-33.856;151.182;2023-01-15T07:31:56;26.20;99.90
20803;DHT22;10562;-33.856;151.182;2023-01-15T07:34:28;26.20;99.90
20803;DHT22;10562;-33.856;151.182;2023-01-15T07:36:59;26.00;99.90
20803;DHT22;10562;-33.856;151.182;2023-01-15T07:39:30;26.00;99.90
20803;DHT22;10562;-33.856;151.182;2023-01-15T07:42:01;25.90;99.90
20803;DHT22;10562;-33.856;151.182;2023-01-15T07:44:48;25.80;99.90
20803;DHT22;10562;-33.856;151.182;2023-01-15T07:47:34;25.70;99.90
20803;DHT22;10562;-33.856;151.182;2023-01-15T07:50:25;25.70;99.90
20803;DHT22;10562;-33.856;151.182;2023-01-15T07:52:55;25.60;99.90
20803;DHT22;10562;-33.856;151.182;2023-01-15T07:55:26;25.50;99.90
20803;DHT22;10562;-33.856;151.182;2023-01-15T07:57:57;25.50;99.90
20803;DHT22;10562;-33.856;151.182;2023-01-15T08:00:28;25.40;99.90
20803;DHT22;10562;-33.856;151.182;2023-01-15T08:03:02;25.40;99.90
20803;DHT22;10562;-33.856;151.182;2023-01-15T08:05:35;25.40;99.90
20803;DHT22;10562;-33.856;151.182;2023-01-15T08:08:06;25.20;99.90
20803;DHT22;10562;-33.856;151.182;2023-01-15T08:10:43;25.20;99.90
20803;DHT22;10562;-33.856;151.182;2023-01-15T08:13:26;25.20;99.90
20803;DHT22;10562;-33.856;151.182;2023-01-15T08:16:13;25.20;99.90
20803;DHT22;10562;-33.856;151.182;2023-01-15T08:18:44;25.10;99.90
20803;DHT22;10562;-33.856;151.182;2023-01-15T08:21:16;25.10;99.90
20803;DHT22;10562;-33.856;151.182;2023-01-15T08:23:48;25.10;99.90
20803;DHT22;10562;-33.856;151.182;2023-01-15T08:26:19;25.00;99.90
20803;DHT22;10562;-33.856;151.182;2023-01-15T08:28:49;25.00;99.90
20803;DHT22;10562;-33.856;151.182;2023-01-15T08:31:20;25.00;99.90
20803;DHT22;10562;-33.856;151.182;2023-01-15T08:33:51;25.00;99.90
20803;DHT22;10562;-33.856;151.182;2023-01-15T08:36:23;25.10;99.90
20803;DHT22;10562;-33.856;151.182;2023-01-15T08:38:54;25.00;99.90
20803;DHT22;10562;-33.856;151.182;2023-01-15T08:41:25;25.00;99.90
20803;DHT22;10562;-33.856;151.182;2023-01-15T08:43:56;24.90;99.90
20803;DHT22;10562;-33.856;151.182;2023-01-15T08:46:26;24.90;99.90
20803;DHT22;10562;-33.856;151.182;2023-01-15T08:48:57;24.90;99.90
20803;DHT22;10562;-33.856;151.182;2023-01-15T08:51:30;24.90;99.90
20803;DHT22;10562;-33.856;151.182;2023-01-15T08:54:00;24.90;99.90
20803;DHT22;10562;-33.856;151.182;2023-01-15T08:56:31;24.80;99.90
20803;DHT22;10562;-33.856;151.182;2023-01-15T08:59:05;24.80;99.90
20803;DHT22;10562;-33.856;151.182;2023-01-15T09:01:36;24.80;99.90
20803;DHT22;10562;-33.856;151.182;2023-01-15T09:04:08;24.70;99.90
20803;DHT22;10562;-33.856;151.182;2023-01-15T09:06:41;24.70;99.90
20803;DHT22;10562;-33.856;151.182;2023-01-15T09:09:12;24.70;99.90
20803;DHT22;10562;-33.856;151.182;2023-01-15T09:11:43;24.70;99.90
20803;DHT22;10562;-33.856;151.182;2023-01-15T09:14:15;24.70;99.90
20803;DHT22;10562;-33.856;151.182;2023-01-15T09:16:45;24.70;99.90
20803;DHT22;10562;-33.856;151.182;2023-01-15T09:19:16;24.70;99.90
20803;DHT22;10562;-33.856;151.182;2023-01-15T09:21:49;24.70;99.90
20803;DHT22;10562;-33.856;151.182;2023-01-15T09:24:19;24.70;99.90
20803;DHT22;10562;-33.856;151.182;2023-01-15T09:26:50;24.60;99.90
20803;DHT22;10562;-33.856;151.182;2023-01-15T09:29:22;24.60;99.90
20803;DHT22;10562;-33.856;151.182;2023-01-15T09:31:52;24.60;99.90
20803;DHT22;10562;-33.856;151.182;2023-01-15T09:34:23;24.60;99.90
20803;DHT22;10562;-33.856;151.182;2023-01-15T09:36:56;24.60;99.90
20803;DHT22;10562;-33.856;151.182;2023-01-15T09:39:26;24.60;99.90
20803;DHT22;10562;-33.856;151.182;2023-01-15T09:42:10;24.50;99.90
20803;DHT22;10562;-33.856;151.182;2023-01-15T09:47:53;24.50;99.90
20803;DHT22;10562;-33.856;151.182;2023-01-15T09:50:32;24.50;99.90
20803;DHT22;10562;-33.856;151.182;2023-01-15T09:53:21;24.50;99.90
20803;DHT22;10562;-33.856;151.182;2023-01-15T09:55:54;24.40;99.90
20803;DHT22;10562;-33.856;151.182;2023-01-15T09:58:32;24.40;99.90
20803;DHT22;10562;-33.856;151.182;2023-01-15T10:01:04;24.30;99.90
20803;DHT22;10562;-33.856;151.182;2023-01-15T10:03:41;24.30;99.90
20803;DHT22;10562;-33.856;151.182;2023-01-15T10:06:16;24.20;99.90
20803;DHT22;10562;-33.856;151.182;2023-01-15T10:09:00;24.10;99.90
20803;DHT22;10562;-33.856;151.182;2023-01-15T10:11:41;24.00;99.90
20803;DHT22;10562;-33.856;151.182;2023-01-15T10:14:38;24.00;99.90
20803;DHT22;10562;-33.856;151.182;2023-01-15T10:17:24;23.90;99.90
20803;DHT22;10562;-33.856;151.182;2023-01-15T10:19:56;23.90;99.90
20803;DHT22;10562;-33.856;151.182;2023-01-15T10:22:36;23.90;99.90
20803;DHT22;10562;-33.856;151.182;2023-01-15T10:25:15;23.80;99.90
20803;DHT22;10562;-33.856;151.182;2023-01-15T10:27:49;23.90;99.90
20803;DHT22;10562;-33.856;151.182;2023-01-15T10:30:29;23.90;99.90
20803;DHT22;10562;-33.856;151.182;2023-01-15T10:33:10;23.90;99.90
20803;DHT22;10562;-33.856;151.182;2023-01-15T10:35:51;23.80;99.90
20803;DHT22;10562;-33.856;151.182;2023-01-15T10:38:28;23.90;99.90
20803;DHT22;10562;-33.856;151.182;2023-01-15T10:41:29;23.90;99.90
20803;DHT22;10562;-33.856;151.182;2023-01-15T10:44:04;23.90;99.90
20803;DHT22;10562;-33.856;151.182;2023-01-15T10:46:40;24.00;99.90
20803;DHT22;10562;-33.856;151.182;2023-01-15T10:49:14;24.00;99.90
20803;DHT22;10562;-33.856;151.182;2023-01-15T10:51:47;23.90;99.90
20803;DHT22;10562;-33.856;151.182;2023-01-15T10:54:26;23.90;99.90
20803;DHT22;10562;-33.856;151.182;2023-01-15T10:57:06;24.00;99.90
20803;DHT22;10562;-33.856;151.182;2023-01-15T10:59:43;24.00;99.90
20803;DHT22;10562;-33.856;151.182;2023-01-15T11:02:26;24.00;99.90
20803;DHT22;10562;-33.856;151.182;2023-01-15T11:04:57;24.00;99.90
20803;DHT22;10562;-33.856;151.182;2023-01-15T11:07:34;23.90;99.90
20803;DHT22;10562;-33.856;151.182;2023-01-15T11:10:08;24.00;99.90
20803;DHT22;10562;-33.856;151.182;2023-01-15T11:12:50;24.00;99.90
20803;DHT22;10562;-33.856;151.182;2023-01-15T11:15:37;23.90;99.90
20803;DHT22;10562;-33.856;151.182;2023-01-15T11:18:26;23.90;99.90
20803;DHT22;10562;-33.856;151.182;2023-01-15T11:21:16;23.80;99.90
20803;DHT22;10562;-33.856;151.182;2023-01-15T11:23:48;23.80;99.90
20803;DHT22;10562;-33.856;151.182;2023-01-15T11:26:21;23.90;99.90
20803;DHT22;10562;-33.856;151.182;2023-01-15T11:29:11;23.80;99.90
20803;DHT22;10562;-33.856;151.182;2023-01-15T11:31:42;23.80;99.90
20803;DHT22;10562;-33.856;151.182;2023-01-15T11:34:19;23.70;99.90
20803;DHT22;10562;-33.856;151.182;2023-01-15T11:37:02;23.70;99.90
20803;DHT22;10562;-33.856;151.182;2023-01-15T11:39:33;23.70;99.90
20803;DHT22;10562;-33.856;151.182;2023-01-15T11:42:05;23.70;99.90
20803;DHT22;10562;-33.856;151.182;2023-01-15T11:45:00;23.70;99.90
20803;DHT22;10562;-33.856;151.182;2023-01-15T11:47:53;23.60;99.90
20803;DHT22;10562;-33.856;151.182;2023-01-15T11:50:46;23.60;99.90
20803;DHT22;10562;-33.856;151.182;2023-01-15T11:53:21;23.50;99.90
20803;DHT22;10562;-33.856;151.182;2023-01-15T11:55:55;23.50;99.90
20803;DHT22;10562;-33.856;151.182;2023-01-15T11:58:31;23.50;99.90
20803;DHT22;10562;-33.856;151.182;2023-01-15T12:01:07;23.50;99.90
20803;DHT22;10562;-33.856;151.182;2023-01-15T12:03:44;23.50;99.90
20803;DHT22;10562;-33.856;151.182;2023-01-15T12:06:17;23.50;99.90
20803;DHT22;10562;-33.856;151.182;2023-01-15T12:08:50;23.40;99.90
20803;DHT22;10562;-33.856;151.182;2023-01-15T12:11:49;23.40;99.90
20803;DHT22;10562;-33.856;151.182;2023-01-15T12:14:49;23.40;99.90
20803;DHT22;10562;-33.856;151.182;2023-01-15T12:17:45;23.40;99.90
20803;DHT22;10562;-33.856;151.182;2023-01-15T12:20:23;23.40;99.90
20803;DHT22;10562;-33.856;151.182;2023-01-15T12:23:19;23.40;99.90
20803;DHT22;10562;-33.856;151.182;2023-01-15T12:25:59;23.40;99.90
20803;DHT22;10562;-33.856;151.182;2023-01-15T12:28:36;23.30;99.90
20803;DHT22;10562;-33.856;151.182;2023-01-15T12:31:13;23.20;99.90
20803;DHT22;10562;-33.856;151.182;2023-01-15T12:33:50;23.20;99.90
20803;DHT22;10562;-33.856;151.182;2023-01-15T12:36:25;23.20;99.90
20803;DHT22;10562;-33.856;151.182;2023-01-15T12:38:59;23.10;99.90
20803;DHT22;10562;-33.856;151.182;2023-01-15T12:41:32;23.10;99.90
20803;DHT22;10562;-33.856;151.182;2023-01-15T12:44:36;23.10;99.90
20803;DHT22;10562;-33.856;151.182;2023-01-15T12:47:27;23.10;99.90
20803;DHT22;10562;-33.856;151.182;2023-01-15T12:50:05;23.10;99.90
20803;DHT22;10562;-33.856;151.182;2023-01-15T12:52:40;23.10;99.90
20803;DHT22;10562;-33.856;151.182;2023-01-15T12:55:17;23.10;99.90
20803;DHT22;10562;-33.856;151.182;2023-01-15T12:57:52;23.00;99.90
20803;DHT22;10562;-33.856;151.182;2023-01-15T13:00:26;23.00;99.90
20803;DHT22;10562;-33.856;151.182;2023-01-15T13:03:18;23.00;99.90
20803;DHT22;10562;-33.856;151.182;2023-01-15T13:05:55;23.00;99.90
20803;DHT22;10562;-33.856;151.182;2023-01-15T13:08:31;23.00;99.90
20803;DHT22;10562;-33.856;151.182;2023-01-15T13:11:04;23.00;99.90
20803;DHT22;10562;-33.856;151.182;2023-01-15T13:13:37;23.00;99.90
20803;DHT22;10562;-33.856;151.182;2023-01-15T13:16:15;23.00;99.90
20803;DHT22;10562;-33.856;151.182;2023-01-15T13:18:58;23.00;99.90
20803;DHT22;10562;-33.856;151.182;2023-01-15T13:21:37;22.90;99.90
20803;DHT22;10562;-33.856;151.182;2023-01-15T13:24:26;22.90;99.90
20803;DHT22;10562;-33.856;151.182;2023-01-15T13:27:14;22.80;99.90
20803;DHT22;10562;-33.856;151.182;2023-01-15T13:29:58;22.90;99.90
20803;DHT22;10562;-33.856;151.182;2023-01-15T13:32:34;22.90;99.90
20803;DHT22;10562;-33.856;151.182;2023-01-15T13:35:09;22.80;99.90
20803;DHT22;10562;-33.856;151.182;2023-01-15T13:37:45;22.80;99.90
20803;DHT22;10562;-33.856;151.182;2023-01-15T13:40:21;22.80;99.90
20803;DHT22;10562;-33.856;151.182;2023-01-15T13:42:53;22.80;99.90
20803;DHT22;10562;-33.856;151.182;2023-01-15T13:45:33;22.80;99.90
20803;DHT22;10562;-33.856;151.182;2023-01-15T13:48:07;22.80;99.90
20803;DHT22;10562;-33.856;151.182;2023-01-15T13:50:41;22.80;99.90
20803;DHT22;10562;-33.856;151.182;2023-01-15T13:53:21;22.70;99.90
20803;DHT22;10562;-33.856;151.182;2023-01-15T13:55:54;22.70;99.90
20803;DHT22;10562;-33.856;151.182;2023-01-15T13:58:29;22.60;99.90
20803;DHT22;10562;-33.856;151.182;2023-01-15T14:01:06;22.70;99.90
20803;DHT22;10562;-33.856;151.182;2023-01-15T14:03:38;22.70;99.90
20803;DHT22;10562;-33.856;151.182;2023-01-15T14:06:09;22.70;99.90
20803;DHT22;10562;-33.856;151.182;2023-01-15T14:08:44;22.70;99.90
20803;DHT22;10562;-33.856;151.182;2023-01-15T14:11:35;22.60;99.90
20803;DHT22;10562;-33.856;151.182;2023-01-15T14:14:30;22.60;99.90
20803;DHT22;10562;-33.856;151.182;2023-01-15T14:17:18;22.50;99.90
20803;DHT22;10562;-33.856;151.182;2023-01-15T14:20:11;22.40;99.90
20803;DHT22;10562;-33.856;151.182;2023-01-15T14:22:55;22.50;99.90
20803;DHT22;10562;-33.856;151.182;2023-01-15T14:25:42;22.60;99.90
20803;DHT22;10562;-33.856;151.182;2023-01-15T14:28:36;22.50;99.90
20803;DHT22;10562;-33.856;151.182;2023-01-15T14:31:20;22.60;99.90
20803;DHT22;10562;-33.856;151.182;2023-01-15T14:34:05;22.70;99.90
20803;DHT22;10562;-33.856;151.182;2023-01-15T14:36:44;22.80;99.90
20803;DHT22;10562;-33.856;151.182;2023-01-15T14:39:38;22.80;99.90
20803;DHT22;10562;-33.856;151.182;2023-01-15T14:42:14;22.90;99.90
20803;DHT22;10562;-33.856;151.182;2023-01-15T14:45:05;22.90;99.90
20803;DHT22;10562;-33.856;151.182;2023-01-15T14:47:44;22.90;99.90
20803;DHT22;10562;-33.856;151.182;2023-01-15T14:50:30;22.90;99.90
20803;DHT22;10562;-33.856;151.182;2023-01-15T14:53:23;23.00;99.90
20803;DHT22;10562;-33.856;151.182;2023-01-15T14:55:58;23.00;99.90
20803;DHT22;10562;-33.856;151.182;2023-01-15T14:58:37;23.00;99.90
20803;DHT22;10562;-33.856;151.182;2023-01-15T15:01:29;22.90;99.90
20803;DHT22;10562;-33.856;151.182;2023-01-15T15:04:09;22.80;99.90
20803;DHT22;10562;-33.856;151.182;2023-01-15T15:06:47;22.80;99.90
20803;DHT22;10562;-33.856;151.182;2023-01-15T15:09:33;22.80;99.90
20803;DHT22;10562;-33.856;151.182;2023-01-15T15:12:24;22.70;99.90
20803;DHT22;10562;-33.856;151.182;2023-01-15T15:15:04;22.70;99.90
20803;DHT22;10562;-33.856;151.182;2023-01-15T15:17:43;22.60;99.90
20803;DHT22;10562;-33.856;151.182;2023-01-15T15:20:22;22.60;99.90
20803;DHT22;10562;-33.856;151.182;2023-01-15T15:22:56;22.60;99.90
20803;DHT22;10562;-33.856;151.182;2023-01-15T15:25:32;22.50;99.90
20803;DHT22;10562;-33.856;151.182;2023-01-15T15:28:08;22.60;99.90
20803;DHT22;10562;-33.856;151.182;2023-01-15T15:30:44;22.60;99.90
20803;DHT22;10562;-33.856;151.182;2023-01-15T15:33:17;22.50;99.90
20803;DHT22;10562;-33.856;151.182;2023-01-15T15:35:51;22.50;99.90
20803;DHT22;10562;-33.856;151.182;2023-01-15T15:38:24;22.50;99.90
20803;DHT22;10562;-33.856;151.182;2023-01-15T15:40:56;22.50;99.90
20803;DHT22;10562;-33.856;151.182;2023-01-15T15:43:31;22.50;99.90
20803;DHT22;10562;-33.856;151.182;2023-01-15T15:46:30;22.40;99.90